sensor_id;sensor_type;location;lat;lon;timestamp;P1;durP1;ratioP1;P2;durP2;ratioP2
71490;SDS011;59307;50.060;9.150;2023-03-15T00:00:14;11.13;;;3.60;;
71490;SDS011;59307;50.060;9.150;2023-03-15T00:02:39;12.60;;;3.92;;
71490;SDS011;59307;50.060;9.150;2023-03-15T00:05:05;14.15;;;4.22;;
71490;SDS011;59307;50.060;9.150;2023-03-15T00:07:30;14.73;;;4.20;;
71490;SDS011;59307;50.060;9.150;2023-03-15T00:09:56;15.07;;;4.30;;
71490;SDS011;59307;50.060;9.150;2023-03-15T00:12:21;10.03;;;3.93;;
71490;SDS011;59307;50.060;9.150;2023-03-15T00:14:47;16.87;;;4.23;;
71490;SDS011;59307;50.060;9.150;2023-03-15T00:17:12;12.90;;;4.35;;
71490;SDS011;59307;50.060;9.150;2023-03-15T00:19:37;17.57;;;4.20;;
71490;SDS011;59307;50.060;9.150;2023-03-15T00:22:02;13.75;;;4.20;;
71490;SDS011;59307;50.060;9.150;2023-03-15T00:24:28;13.13;;;3.97;;
71490;SDS011;59307;50.060;9.150;2023-03-15T00:26:53;13.15;;;3.90;;
71490;SDS011;59307;50.060;9.150;2023-03-15T00:29:18;13.05;;;4.15;;
71490;SDS011;59307;50.060;9.150;2023-03-15T00:31:43;13.40;;;4.20;;
71490;SDS011;59307;50.060;9.150;2023-03-15T00:34:08;17.55;;;4.50;;
71490;SDS011;59307;50.060;9.150;2023-03-15T00:36:33;10.25;;;4.00;;
71490;SDS011;59307;50.060;9.150;2023-03-15T00:38:59;13.00;;;4.80;;
71490;SDS011;59307;50.060;9.150;2023-03-15T00:41:24;12.27;;;4.07;;
71490;SDS011;59307;50.060;9.150;2023-03-15T00:43:50;18.20;;;4.57;;
71490;SDS011;59307;50.060;9.150;2023-03-15T00:46:16;12.87;;;4.30;;
71490;SDS011;59307;50.060;9.150;2023-03-15T00:48:41;22.58;;;5.28;;
71490;SDS011;59307;50.060;9.150;2023-03-15T00:51:11;15.67;;;4.77;;
71490;SDS011;59307;50.060;9.150;2023-03-15T00:53:38;16.70;;;5.47;;
71490;SDS011;59307;50.060;9.150;2023-03-15T00:56:08;12.38;;;4.68;;
71490;SDS011;59307;50.060;9.150;2023-03-15T00:58:34;17.45;;;5.25;;
71490;SDS011;59307;50.060;9.150;2023-03-15T01:00:59;15.60;;;5.07;;
71490;SDS011;59307;50.060;9.150;2023-03-15T01:03:25;18.77;;;4.80;;
71490;SDS011;59307;50.060;9.150;2023-03-15T01:05:51;12.55;;;4.57;;
71490;SDS011;59307;50.060;9.150;2023-03-15T01:08:16;12.60;;;4.40;;
71490;SDS011;59307;50.060;9.150;2023-03-15T01:10:41;13.20;;;4.63;;
71490;SDS011;59307;50.060;9.150;2023-03-15T01:13:06;11.60;;;4.53;;
71490;SDS011;59307;50.060;9.150;2023-03-15T01:15:31;15.23;;;4.17;;
71490;SDS011;59307;50.060;9.150;2023-03-15T01:17:57;12.40;;;4.30;;
71490;SDS011;59307;50.060;9.150;2023-03-15T01:20:22;14.40;;;4.00;;
71490;SDS011;59307;50.060;9.150;2023-03-15T01:22:47;11.17;;;4.07;;
71490;SDS011;59307;50.060;9.150;2023-03-15T01:25:12;9.37;;;3.17;;
71490;SDS011;59307;50.060;9.150;2023-03-15T01:27:37;12.17;;;2.80;;
71490;SDS011;59307;50.060;9.150;2023-03-15T01:30:03;13.40;;;3.47;;
71490;SDS011;59307;50.060;9.150;2023-03-15T01:32:28;18.63;;;3.03;;
71490;SDS011;59307;50.060;9.150;2023-03-15T01:34:53;12.00;;;2.77;;
71490;SDS011;59307;50.060;9.150;2023-03-15T01:37:18;10.43;;;3.20;;
71490;SDS011;59307;50.060;9.150;2023-03-15T01:39:43;13.13;;;2.57;;
71490;SDS011;59307;50.060;9.150;2023-03-15T01:42:09;11.20;;;2.83;;
71490;SDS011;59307;50.060;9.150;2023-03-15T01:47:18;10.07;;;2.30;;
71490;SDS011;59307;50.060;9.150;2023-03-15T01:49:45;12.23;;;2.87;;
71490;SDS011;59307;50.060;9.150;2023-03-15T01:52:12;10.25;;;3.20;;
71490;SDS011;59307;50.060;9.150;2023-03-15T01:54:40;10.73;;;2.70;;
71490;SDS011;59307;50.060;9.150;2023-03-15T01:57:07;12.40;;;2.40;;
71490;SDS011;59307;50.060;9.150;2023-03-15T01:59:35;9.02;;;2.28;;
71490;SDS011;59307;50.060;9.150;2023-03-15T02:02:01;11.52;;;3.10;;
71490;SDS011;59307;50.060;9.150;2023-03-15T02:04:49;10.60;;;2.73;;
71490;SDS011;59307;50.060;9.150;2023-03-15T02:07:12;11.40;;;2.25;;
71490;SDS011;59307;50.060;9.150;2023-03-15T02:09:41;15.40;;;2.50;;
71490;SDS011;59307;50.060;9.150;2023-03-15T02:12:08;10.30;;;2.50;;
71490;SDS011;59307;50.060;9.150;2023-03-15T02:14:34;22.40;;;2.72;;
71490;SDS011;59307;50.060;9.150;2023-03-15T02:16:59;10.70;;;2.50;;
71490;SDS011;59307;50.060;9.150;2023-03-15T02:19:32;8.10;;;2.20;;
71490;SDS011;59307;50.060;9.150;2023-03-15T02:22:04;11.50;;;2.60;;
71490;SDS011;59307;50.060;9.150;2023-03-15T02:27:19;14.70;;;2.33;;
71490;SDS011;59307;50.060;9.150;2023-03-15T02:29:46;9.95;;;2.20;;
71490;SDS011;59307;50.060;9.150;2023-03-15T02:32:11;11.03;;;2.10;;
71490;SDS011;59307;50.060;9.150;2023-03-15T02:34:36;9.30;;;2.37;;
71490;SDS011;59307;50.060;9.150;2023-03-15T02:37:01;16.43;;;2.43;;
71490;SDS011;59307;50.060;9.150;2023-03-15T02:39:26;11.17;;;2.17;;
71490;SDS011;59307;50.060;9.150;2023-03-15T02:41:53;11.03;;;2.33;;
71490;SDS011;59307;50.060;9.150;2023-03-15T02:44:21;3.97;;;1.70;;
71490;SDS011;59307;50.060;9.150;2023-03-15T02:46:48;9.63;;;2.50;;
71490;SDS011;59307;50.060;9.150;2023-03-15T02:49:14;7.25;;;1.90;;
71490;SDS011;59307;50.060;9.150;2023-03-15T02:51:41;7.47;;;1.80;;
71490;SDS011;59307;50.060;9.150;2023-03-15T02:54:06;9.50;;;1.80;;
71490;SDS011;59307;50.060;9.150;2023-03-15T02:56:31;8.93;;;2.20;;
71490;SDS011;59307;50.060;9.150;2023-03-15T02:58:57;10.43;;;2.08;;
71490;SDS011;59307;50.060;9.150;2023-03-15T03:01:23;11.13;;;2.00;;
71490;SDS011;59307;50.060;9.150;2023-03-15T03:03:48;10.87;;;2.30;;
71490;SDS011;59307;50.060;9.150;2023-03-15T03:06:13;8.20;;;1.97;;
71490;SDS011;59307;50.060;9.150;2023-03-15T03:08:39;10.50;;;2.35;;
71490;SDS011;59307;50.060;9.150;2023-03-15T03:11:04;9.27;;;1.77;;
71490;SDS011;59307;50.060;9.150;2023-03-15T03:13:30;8.63;;;2.38;;
71490;SDS011;59307;50.060;9.150;2023-03-15T03:15:55;8.43;;;2.23;;
71490;SDS011;59307;50.060;9.150;2023-03-15T03:18:27;5.27;;;1.73;;
71490;SDS011;59307;50.060;9.150;2023-03-15T03:20:56;5.32;;;1.83;;
71490;SDS011;59307;50.060;9.150;2023-03-15T03:23:22;11.23;;;1.98;;
71490;SDS011;59307;50.060;9.150;2023-03-15T03:25:49;7.30;;;1.60;;
71490;SDS011;59307;50.060;9.150;2023-03-15T03:28:15;6.60;;;1.70;;
71490;SDS011;59307;50.060;9.150;2023-03-15T03:30:40;9.00;;;2.13;;
71490;SDS011;59307;50.060;9.150;2023-03-15T03:33:05;8.93;;;2.20;;
71490;SDS011;59307;50.060;9.150;2023-03-15T03:35:30;10.10;;;2.30;;
71490;SDS011;59307;50.060;9.150;2023-03-15T03:37:56;11.30;;;3.00;;
71490;SDS011;59307;50.060;9.150;2023-03-15T03:40:21;9.57;;;2.00;;
71490;SDS011;59307;50.060;9.150;2023-03-15T03:42:46;5.20;;;1.70;;
71490;SDS011;59307;50.060;9.150;2023-03-15T03:45:11;11.57;;;2.43;;
71490;SDS011;59307;50.060;9.150;2023-03-15T03:47:36;8.00;;;2.40;;
71490;SDS011;59307;50.060;9.150;2023-03-15T03:50:02;7.23;;;1.90;;
71490;SDS011;59307;50.060;9.150;2023-03-15T03:52:27;8.70;;;2.22;;
71490;SDS011;59307;50.060;9.150;2023-03-15T03:54:52;10.43;;;2.10;;
71490;SDS011;59307;50.060;9.150;2023-03-15T03:57:17;9.07;;;2.30;;
71490;SDS011;59307;50.060;9.150;2023-03-15T03:59:42;6.65;;;1.85;;
71490;SDS011;59307;50.060;9.150;2023-03-15T04:02:08;8.30;;;2.30;;
71490;SDS011;59307;50.060;9.150;2023-03-15T04:04:33;10.77;;;1.83;;
71490;SDS011;59307;50.060;9.150;2023-03-15T04:06:58;4.10;;;1.70;;
71490;SDS011;59307;50.060;9.150;2023-03-15T04:09:23;10.73;;;2.20;;
71490;SDS011;59307;50.060;9.150;2023-03-15T04:11:49;8.03;;;2.10;;
71490;SDS011;59307;50.060;9.150;2023-03-15T04:14:14;14.17;;;2.27;;
71490;SDS011;59307;50.060;9.150;2023-03-15T04:16:39;7.50;;;2.20;;
71490;SDS011;59307;50.060;9.150;2023-03-15T04:19:05;8.83;;;2.07;;
71490;SDS011;59307;50.060;9.150;2023-03-15T04:21:30;9.65;;;2.30;;
71490;SDS011;59307;50.060;9.150;2023-03-15T04:23:57;13.53;;;2.40;;
71490;SDS011;59307;50.060;9.150;2023-03-15T04:26:22;13.13;;;2.50;;
71490;SDS011;59307;50.060;9.150;2023-03-15T04:28:50;9.25;;;1.90;;
71490;SDS011;59307;50.060;9.150;2023-03-15T04:31:15;11.03;;;2.13;;
71490;SDS011;59307;50.060;9.150;2023-03-15T04:33:40;8.97;;;2.40;;
71490;SDS011;59307;50.060;9.150;2023-03-15T04:36:06;8.27;;;2.40;;
71490;SDS011;59307;50.060;9.150;2023-03-15T04:38:31;15.07;;;2.33;;
71490;SDS011;59307;50.060;9.150;2023-03-15T04:40:56;9.93;;;2.50;;
71490;SDS011;59307;50.060;9.150;2023-03-15T04:43:21;13.97;;;2.50;;
71490;SDS011;59307;50.060;9.150;2023-03-15T04:45:48;7.97;;;2.20;;
71490;SDS011;59307;50.060;9.150;2023-03-15T04:48:13;6.57;;;1.60;;
71490;SDS011;59307;50.060;9.150;2023-03-15T04:50:38;8.23;;;2.03;;
71490;SDS011;59307;50.060;9.150;2023-03-15T04:53:04;10.00;;;1.90;;
71490;SDS011;59307;50.060;9.150;2023-03-15T04:55:29;9.70;;;2.07;;
71490;SDS011;59307;50.060;9.150;2023-03-15T04:57:54;10.63;;;2.13;;
71490;SDS011;59307;50.060;9.150;2023-03-15T05:00:20;9.40;;;2.33;;
71490;SDS011;59307;50.060;9.150;2023-03-15T05:02:45;8.50;;;2.03;;
71490;SDS011;59307;50.060;9.150;2023-03-15T05:05:16;7.97;;;2.03;;
71490;SDS011;59307;50.060;9.150;2023-03-15T05:07:41;10.67;;;2.10;;
71490;SDS011;59307;50.060;9.150;2023-03-15T05:10:06;7.30;;;2.07;;
71490;SDS011;59307;50.060;9.150;2023-03-15T05:12:31;5.93;;;1.80;;
71490;SDS011;59307;50.060;9.150;2023-03-15T05:14:57;8.20;;;2.30;;
71490;SDS011;59307;50.060;9.150;2023-03-15T05:17:23;11.37;;;2.20;;
71490;SDS011;59307;50.060;9.150;2023-03-15T05:19:48;7.77;;;2.80;;
71490;SDS011;59307;50.060;9.150;2023-03-15T05:22:13;11.73;;;2.37;;
71490;SDS011;59307;50.060;9.150;2023-03-15T05:24:39;9.63;;;2.25;;
71490;SDS011;59307;50.060;9.150;2023-03-15T05:27:04;9.93;;;2.30;;
71490;SDS011;59307;50.060;9.150;2023-03-15T05:29:29;13.47;;;2.00;;
71490;SDS011;59307;50.060;9.150;2023-03-15T05:31:55;8.23;;;1.83;;
71490;SDS011;59307;50.060;9.150;2023-03-15T05:34:20;8.90;;;1.90;;
71490;SDS011;59307;50.060;9.150;2023-03-15T05:36:48;6.15;;;1.98;;
71490;SDS011;59307;50.060;9.150;2023-03-15T05:39:14;7.93;;;1.80;;
71490;SDS011;59307;50.060;9.150;2023-03-15T05:41:40;6.73;;;1.87;;
71490;SDS011;59307;50.060;9.150;2023-03-15T05:44:06;12.57;;;2.05;;
71490;SDS011;59307;50.060;9.150;2023-03-15T05:46:31;7.73;;;2.20;;
71490;SDS011;59307;50.060;9.150;2023-03-15T05:48:56;15.60;;;2.43;;
71490;SDS011;59307;50.060;9.150;2023-03-15T05:51:22;7.57;;;2.57;;
71490;SDS011;59307;50.060;9.150;2023-03-15T05:53:47;11.43;;;2.20;;
71490;SDS011;59307;50.060;9.150;2023-03-15T05:56:12;12.13;;;2.30;;
71490;SDS011;59307;50.060;9.150;2023-03-15T05:58:37;6.97;;;2.07;;
71490;SDS011;59307;50.060;9.150;2023-03-15T06:01:03;11.50;;;2.10;;
71490;SDS011;59307;50.060;9.150;2023-03-15T06:03:28;13.93;;;2.30;;
71490;SDS011;59307;50.060;9.150;2023-03-15T06:05:55;9.63;;;2.17;;
71490;SDS011;59307;50.060;9.150;2023-03-15T06:08:20;9.67;;;2.10;;
71490;SDS011;59307;50.060;9.150;2023-03-15T06:10:45;10.40;;;2.20;;
71490;SDS011;59307;50.060;9.150;2023-03-15T06:13:10;10.03;;;2.17;;
71490;SDS011;59307;50.060;9.150;2023-03-15T06:15:36;11.63;;;2.60;;
71490;SDS011;59307;50.060;9.150;2023-03-15T06:18:01;9.93;;;2.13;;
71490;SDS011;59307;50.060;9.150;2023-03-15T06:20:26;6.50;;;2.20;;
71490;SDS011;59307;50.060;9.150;2023-03-15T06:22:52;7.05;;;2.20;;
71490;SDS011;59307;50.060;9.150;2023-03-15T06:25:17;14.07;;;2.20;;
71490;SDS011;59307;50.060;9.150;2023-03-15T06:27:42;9.53;;;2.20;;
71490;SDS011;59307;50.060;9.150;2023-03-15T06:30:08;8.48;;;2.00;;
71490;SDS011;59307;50.060;9.150;2023-03-15T06:32:33;7.93;;;2.10;;
71490;SDS011;59307;50.060;9.150;2023-03-15T06:34:59;9.23;;;2.10;;
71490;SDS011;59307;50.060;9.150;2023-03-15T06:37:24;11.80;;;2.47;;
71490;SDS011;59307;50.060;9.150;2023-03-15T06:39:49;9.43;;;2.27;;
71490;SDS011;59307;50.060;9.150;2023-03-15T06:42:15;12.48;;;2.78;;
71490;SDS011;59307;50.060;9.150;2023-03-15T06:44:40;7.33;;;2.10;;
71490;SDS011;59307;50.060;9.150;2023-03-15T06:47:07;6.32;;;2.13;;
71490;SDS011;59307;50.060;9.150;2023-03-15T06:49:33;8.73;;;2.83;;
71490;SDS011;59307;50.060;9.150;2023-03-15T06:51:58;7.53;;;2.50;;
71490;SDS011;59307;50.060;9.150;2023-03-15T06:54:23;13.87;;;2.67;;
71490;SDS011;59307;50.060;9.150;2023-03-15T06:56:48;9.07;;;2.87;;
71490;SDS011;59307;50.060;9.150;2023-03-15T06:59:13;9.07;;;2.83;;
71490;SDS011;59307;50.060;9.150;2023-03-15T07:01:39;7.50;;;2.70;;
71490;SDS011;59307;50.060;9.150;2023-03-15T07:04:04;12.70;;;3.00;;
71490;SDS011;59307;50.060;9.150;2023-03-15T07:06:29;9.33;;;3.10;;
71490;SDS011;59307;50.060;9.150;2023-03-15T07:08:54;7.93;;;2.60;;
71490;SDS011;59307;50.060;9.150;2023-03-15T07:11:20;10.13;;;3.20;;
71490;SDS011;59307;50.060;9.150;2023-03-15T07:13:45;10.90;;;3.50;;
71490;SDS011;59307;50.060;9.150;2023-03-15T07:16:10;9.83;;;3.40;;
71490;SDS011;59307;50.060;9.150;2023-03-15T07:18:35;11.30;;;4.37;;
71490;SDS011;59307;50.060;9.150;2023-03-15T07:21:01;10.43;;;3.73;;
71490;SDS011;59307;50.060;9.150;2023-03-15T07:23:27;15.90;;;4.50;;
71490;SDS011;59307;50.060;9.150;2023-03-15T07:25:52;10.17;;;4.43;;
71490;SDS011;59307;50.060;9.150;2023-03-15T07:28:18;10.83;;;3.87;;
71490;SDS011;59307;50.060;9.150;2023-03-15T07:30:50;13.93;;;4.45;;
71490;SDS011;59307;50.060;9.150;2023-03-15T07:33:16;12.87;;;4.27;;
71490;SDS011;59307;50.060;9.150;2023-03-15T07:35:41;9.63;;;3.63;;
71490;SDS011;59307;50.060;9.150;2023-03-15T07:38:06;10.83;;;4.63;;
71490;SDS011;59307;50.060;9.150;2023-03-15T07:40:31;10.70;;;4.33;;
71490;SDS011;59307;50.060;9.150;2023-03-15T07:42:56;17.00;;;4.40;;
71490;SDS011;59307;50.060;9.150;2023-03-15T07:45:21;9.30;;;3.90;;
71490;SDS011;59307;50.060;9.150;2023-03-15T07:47:47;11.33;;;4.20;;
71490;SDS011;59307;50.060;9.150;2023-03-15T07:50:12;12.43;;;5.10;;
71490;SDS011;59307;50.060;9.150;2023-03-15T07:52:37;11.23;;;4.40;;
71490;SDS011;59307;50.060;9.150;2023-03-15T07:55:02;13.55;;;5.40;;
71490;SDS011;59307;50.060;9.150;2023-03-15T07:57:28;14.13;;;5.77;;
71490;SDS011;59307;50.060;9.150;2023-03-15T07:59:54;15.73;;;4.97;;
71490;SDS011;59307;50.060;9.150;2023-03-15T08:02:19;16.47;;;5.83;;
71490;SDS011;59307;50.060;9.150;2023-03-15T08:04:44;15.45;;;5.32;;
71490;SDS011;59307;50.060;9.150;2023-03-15T08:07:09;17.87;;;5.80;;
71490;SDS011;59307;50.060;9.150;2023-03-15T08:09:35;12.03;;;5.67;;
71490;SDS011;59307;50.060;9.150;2023-03-15T08:12:00;14.13;;;5.50;;
71490;SDS011;59307;50.060;9.150;2023-03-15T08:14:26;12.27;;;5.30;;
71490;SDS011;59307;50.060;9.150;2023-03-15T08:16:51;11.85;;;4.95;;
71490;SDS011;59307;50.060;9.150;2023-03-15T08:19:16;15.13;;;5.33;;
71490;SDS011;59307;50.060;9.150;2023-03-15T08:21:41;14.00;;;4.40;;
71490;SDS011;59307;50.060;9.150;2023-03-15T08:24:09;12.30;;;4.83;;
71490;SDS011;59307;50.060;9.150;2023-03-15T08:26:35;12.93;;;4.00;;
71490;SDS011;59307;50.060;9.150;2023-03-15T08:29:00;14.50;;;5.17;;
71490;SDS011;59307;50.060;9.150;2023-03-15T08:31:25;15.63;;;5.37;;
71490;SDS011;59307;50.060;9.150;2023-03-15T08:33:51;10.37;;;4.23;;
71490;SDS011;59307;50.060;9.150;2023-03-15T08:36:16;13.10;;;5.87;;
71490;SDS011;59307;50.060;9.150;2023-03-15T08:38:41;13.47;;;4.70;;
71490;SDS011;59307;50.060;9.150;2023-03-15T08:41:06;13.57;;;5.53;;
71490;SDS011;59307;50.060;9.150;2023-03-15T08:43:32;11.80;;;5.67;;
71490;SDS011;59307;50.060;9.150;2023-03-15T08:45:57;15.03;;;5.27;;
71490;SDS011;59307;50.060;9.150;2023-03-15T08:48:22;16.17;;;5.53;;
71490;SDS011;59307;50.060;9.150;2023-03-15T08:50:48;13.17;;;5.53;;
71490;SDS011;59307;50.060;9.150;2023-03-15T08:53:13;22.90;;;6.43;;
71490;SDS011;59307;50.060;9.150;2023-03-15T08:55:39;18.80;;;6.00;;
71490;SDS011;59307;50.060;9.150;2023-03-15T08:58:04;16.93;;;5.70;;
71490;SDS011;59307;50.060;9.150;2023-03-15T09:00:30;16.42;;;5.90;;
71490;SDS011;59307;50.060;9.150;2023-03-15T09:02:55;12.03;;;4.93;;
71490;SDS011;59307;50.060;9.150;2023-03-15T09:05:21;13.10;;;4.43;;
71490;SDS011;59307;50.060;9.150;2023-03-15T09:07:46;13.48;;;5.07;;
71490;SDS011;59307;50.060;9.150;2023-03-15T09:10:13;14.50;;;5.00;;
71490;SDS011;59307;50.060;9.150;2023-03-15T09:12:42;15.52;;;5.55;;
71490;SDS011;59307;50.060;9.150;2023-03-15T09:15:08;15.13;;;4.95;;
71490;SDS011;59307;50.060;9.150;2023-03-15T09:17:34;14.57;;;5.63;;
71490;SDS011;59307;50.060;9.150;2023-03-15T09:19:59;13.87;;;5.30;;
71490;SDS011;59307;50.060;9.150;2023-03-15T09:22:24;13.33;;;4.70;;
71490;SDS011;59307;50.060;9.150;2023-03-15T09:24:49;16.50;;;5.57;;
71490;SDS011;59307;50.060;9.150;2023-03-15T09:27:16;14.37;;;5.33;;
71490;SDS011;59307;50.060;9.150;2023-03-15T09:29:41;15.20;;;5.37;;
71490;SDS011;59307;50.060;9.150;2023-03-15T09:32:06;13.83;;;5.70;;
71490;SDS011;59307;50.060;9.150;2023-03-15T09:34:33;19.57;;;5.07;;
71490;SDS011;59307;50.060;9.150;2023-03-15T09:36:59;12.30;;;5.77;;
71490;SDS011;59307;50.060;9.150;2023-03-15T09:39:24;14.13;;;5.53;;
71490;SDS011;59307;50.060;9.150;2023-03-15T09:41:51;14.93;;;5.60;;
71490;SDS011;59307;50.060;9.150;2023-03-15T09:49:36;13.93;;;5.97;;
71490;SDS011;59307;50.060;9.150;2023-03-15T09:52:07;14.75;;;5.55;;
71490;SDS011;59307;50.060;9.150;2023-03-15T09:57:02;17.73;;;6.05;;
71490;SDS011;59307;50.060;9.150;2023-03-15T09:59:32;18.23;;;6.05;;
71490;SDS011;59307;50.060;9.150;2023-03-15T10:01:58;14.50;;;5.93;;
71490;SDS011;59307;50.060;9.150;2023-03-15T10:04:29;11.88;;;5.20;;
71490;SDS011;59307;50.060;9.150;2023-03-15T10:06:56;14.15;;;5.93;;
71490;SDS011;59307;50.060;9.150;2023-03-15T10:09:22;16.02;;;6.00;;
71490;SDS011;59307;50.060;9.150;2023-03-15T10:14:35;11.57;;;5.70;;
71490;SDS011;59307;50.060;9.150;2023-03-15T10:17:10;15.05;;;7.00;;
71490;SDS011;59307;50.060;9.150;2023-03-15T10:22:14;14.90;;;5.85;;
71490;SDS011;59307;50.060;9.150;2023-03-15T10:24:51;16.92;;;5.82;;
71490;SDS011;59307;50.060;9.150;2023-03-15T10:27:33;14.33;;;5.83;;
71490;SDS011;59307;50.060;9.150;2023-03-15T10:30:08;13.90;;;6.22;;
71490;SDS011;59307;50.060;9.150;2023-03-15T10:32:37;14.88;;;5.68;;
71490;SDS011;59307;50.060;9.150;2023-03-15T10:35:07;13.35;;;5.40;;
71490;SDS011;59307;50.060;9.150;2023-03-15T10:37:35;12.75;;;5.97;;
71490;SDS011;59307;50.060;9.150;2023-03-15T10:40:00;16.90;;;6.30;;
71490;SDS011;59307;50.060;9.150;2023-03-15T10:42:26;13.90;;;6.30;;
71490;SDS011;59307;50.060;9.150;2023-03-15T10:44:52;13.73;;;6.67;;
71490;SDS011;59307;50.060;9.150;2023-03-15T10:47:18;15.03;;;5.90;;
71490;SDS011;59307;50.060;9.150;2023-03-15T10:49:43;13.18;;;5.65;;
71490;SDS011;59307;50.060;9.150;2023-03-15T10:52:28;12.10;;;5.90;;
71490;SDS011;59307;50.060;9.150;2023-03-15T10:54:59;13.35;;;6.10;;
71490;SDS011;59307;50.060;9.150;2023-03-15T10:57:25;16.65;;;6.32;;
71490;SDS011;59307;50.060;9.150;2023-03-15T10:59:58;10.52;;;5.03;;
71490;SDS011;59307;50.060;9.150;2023-03-15T11:02:24;14.38;;;5.53;;
71490;SDS011;59307;50.060;9.150;2023-03-15T11:04:58;14.90;;;5.73;;
71490;SDS011;59307;50.060;9.150;2023-03-15T11:07:24;11.18;;;4.90;;
71490;SDS011;59307;50.060;9.150;2023-03-15T11:09:53;16.87;;;5.63;;
71490;SDS011;59307;50.060;9.150;2023-03-15T11:12:25;13.02;;;4.93;;
71490;SDS011;59307;50.060;9.150;2023-03-15T11:14:54;12.68;;;5.72;;
71490;SDS011;59307;50.060;9.150;2023-03-15T11:17:24;15.00;;;5.27;;
71490;SDS011;59307;50.060;9.150;2023-03-15T11:20:00;13.75;;;5.38;;
71490;SDS011;59307;50.060;9.150;2023-03-15T11:22:39;11.45;;;5.35;;
71490;SDS011;59307;50.060;9.150;2023-03-15T11:25:10;17.63;;;5.53;;
71490;SDS011;59307;50.060;9.150;2023-03-15T11:27:36;12.10;;;5.32;;
71490;SDS011;59307;50.060;9.150;2023-03-15T11:30:01;10.10;;;4.97;;
71490;SDS011;59307;50.060;9.150;2023-03-15T11:32:29;13.13;;;4.80;;
71490;SDS011;59307;50.060;9.150;2023-03-15T11:37:27;14.30;;;6.10;;
71490;SDS011;59307;50.060;9.150;2023-03-15T11:40:02;12.57;;;5.80;;
71490;SDS011;59307;50.060;9.150;2023-03-15T11:42:29;13.52;;;5.57;;
71490;SDS011;59307;50.060;9.150;2023-03-15T11:44:58;15.25;;;6.47;;
71490;SDS011;59307;50.060;9.150;2023-03-15T11:50:06;10.30;;;4.83;;
71490;SDS011;59307;50.060;9.150;2023-03-15T11:52:32;9.45;;;4.25;;
71490;SDS011;59307;50.060;9.150;2023-03-15T11:55:00;11.97;;;4.77;;
71490;SDS011;59307;50.060;9.150;2023-03-15T11:59:52;14.07;;;4.10;;
71490;SDS011;59307;50.060;9.150;2023-03-15T12:04:44;7.47;;;3.78;;
71490;SDS011;59307;50.060;9.150;2023-03-15T12:17:43;8.63;;;3.92;;
71490;SDS011;59307;50.060;9.150;2023-03-15T12:25:31;9.63;;;3.67;;
71490;SDS011;59307;50.060;9.150;2023-03-15T12:27:59;6.35;;;3.30;;
71490;SDS011;59307;50.060;9.150;2023-03-15T12:32:54;5.10;;;2.97;;
71490;SDS011;59307;50.060;9.150;2023-03-15T12:35:20;5.70;;;2.90;;
71490;SDS011;59307;50.060;9.150;2023-03-15T12:37:46;6.37;;;2.60;;
71490;SDS011;59307;50.060;9.150;2023-03-15T12:52:58;5.37;;;2.30;;
71490;SDS011;59307;50.060;9.150;2023-03-15T12:55:26;6.25;;;2.47;;
71490;SDS011;59307;50.060;9.150;2023-03-15T12:57:52;5.00;;;2.63;;
71490;SDS011;59307;50.060;9.150;2023-03-15T13:00:22;5.40;;;2.38;;
71490;SDS011;59307;50.060;9.150;2023-03-15T13:02:56;5.05;;;2.50;;
71490;SDS011;59307;50.060;9.150;2023-03-15T13:05:27;4.23;;;2.30;;
71490;SDS011;59307;50.060;9.150;2023-03-15T13:10:39;5.75;;;2.60;;
71490;SDS011;59307;50.060;9.150;2023-03-15T13:13:16;2.58;;;1.65;;
71490;SDS011;59307;50.060;9.150;2023-03-15T13:18:17;3.72;;;1.90;;
71490;SDS011;59307;50.060;9.150;2023-03-15T13:20:52;3.87;;;1.83;;
71490;SDS011;59307;50.060;9.150;2023-03-15T13:23:24;3.78;;;1.80;;
71490;SDS011;59307;50.060;9.150;2023-03-15T13:25:53;3.97;;;2.10;;
71490;SDS011;59307;50.060;9.150;2023-03-15T13:28:22;3.25;;;1.70;;
71490;SDS011;59307;50.060;9.150;2023-03-15T13:30:50;3.05;;;1.90;;
71490;SDS011;59307;50.060;9.150;2023-03-15T13:33:23;3.10;;;1.73;;
71490;SDS011;59307;50.060;9.150;2023-03-15T13:40:49;1.92;;;1.52;;
71490;SDS011;59307;50.060;9.150;2023-03-15T13:43:14;3.80;;;1.90;;
71490;SDS011;59307;50.060;9.150;2023-03-15T13:45:43;3.53;;;1.90;;
71490;SDS011;59307;50.060;9.150;2023-03-15T13:48:08;4.63;;;2.20;;
71490;SDS011;59307;50.060;9.150;2023-03-15T13:50:33;2.73;;;1.80;;
71490;SDS011;59307;50.060;9.150;2023-03-15T13:52:59;3.00;;;1.60;;
71490;SDS011;59307;50.060;9.150;2023-03-15T13:55:26;4.10;;;1.97;;
71490;SDS011;59307;50.060;9.150;2023-03-15T13:57:53;3.73;;;1.70;;
71490;SDS011;59307;50.060;9.150;2023-03-15T14:00:20;2.65;;;1.80;;
71490;SDS011;59307;50.060;9.150;2023-03-15T14:02:50;2.20;;;1.70;;
71490;SDS011;59307;50.060;9.150;2023-03-15T14:05:16;2.60;;;1.75;;
71490;SDS011;59307;50.060;9.150;2023-03-15T14:07:44;2.63;;;1.70;;
71490;SDS011;59307;50.060;9.150;2023-03-15T14:12:55;2.42;;;1.50;;
71490;SDS011;59307;50.060;9.150;2023-03-15T14:17:59;2.80;;;1.65;;
71490;SDS011;59307;50.060;9.150;2023-03-15T14:20:26;2.40;;;1.42;;
71490;SDS011;59307;50.060;9.150;2023-03-15T14:22:56;2.83;;;1.30;;
71490;SDS011;59307;50.060;9.150;2023-03-15T14:25:21;2.50;;;1.25;;
71490;SDS011;59307;50.060;9.150;2023-03-15T14:27:46;2.27;;;1.30;;
71490;SDS011;59307;50.060;9.150;2023-03-15T14:30:22;3.93;;;1.77;;
71490;SDS011;59307;50.060;9.150;2023-03-15T14:32:55;3.20;;;1.90;;
71490;SDS011;59307;50.060;9.150;2023-03-15T14:35:23;2.42;;;1.50;;
71490;SDS011;59307;50.060;9.150;2023-03-15T14:38:50;4.93;;;1.90;;
71490;SDS011;59307;50.060;9.150;2023-03-15T14:40:45;3.28;;;1.80;;
71490;SDS011;59307;50.060;9.150;2023-03-15T14:43:10;3.80;;;1.80;;
71490;SDS011;59307;50.060;9.150;2023-03-15T14:45:39;5.13;;;1.87;;
71490;SDS011;59307;50.060;9.150;2023-03-15T14:48:07;2.92;;;1.70;;
71490;SDS011;59307;50.060;9.150;2023-03-15T14:50:35;3.50;;;1.60;;
71490;SDS011;59307;50.060;9.150;2023-03-15T14:53:01;2.40;;;1.48;;
71490;SDS011;59307;50.060;9.150;2023-03-15T14:55:27;4.43;;;1.90;;
71490;SDS011;59307;50.060;9.150;2023-03-15T14:57:53;4.25;;;1.80;;
71490;SDS011;59307;50.060;9.150;2023-03-15T15:00:18;4.03;;;1.83;;
71490;SDS011;59307;50.060;9.150;2023-03-15T15:02:44;3.50;;;1.73;;
71490;SDS011;59307;50.060;9.150;2023-03-15T15:05:17;4.22;;;1.90;;
71490;SDS011;59307;50.060;9.150;2023-03-15T15:07:44;3.97;;;1.58;;
71490;SDS011;59307;50.060;9.150;2023-03-15T15:10:09;4.00;;;1.87;;
71490;SDS011;59307;50.060;9.150;2023-03-15T15:12:34;4.17;;;2.00;;
71490;SDS011;59307;50.060;9.150;2023-03-15T15:15:00;3.77;;;2.07;;
71490;SDS011;59307;50.060;9.150;2023-03-15T15:17:25;7.15;;;2.72;;
71490;SDS011;59307;50.060;9.150;2023-03-15T15:19:50;10.90;;;4.57;;
71490;SDS011;59307;50.060;9.150;2023-03-15T15:22:16;4.57;;;2.20;;
71490;SDS011;59307;50.060;9.150;2023-03-15T15:24:41;9.95;;;4.15;;
71490;SDS011;59307;50.060;9.150;2023-03-15T15:27:10;5.17;;;2.17;;
71490;SDS011;59307;50.060;9.150;2023-03-15T15:29:35;2.77;;;1.60;;
71490;SDS011;59307;50.060;9.150;2023-03-15T15:32:01;5.20;;;2.50;;
71490;SDS011;59307;50.060;9.150;2023-03-15T15:34:26;7.70;;;3.23;;
71490;SDS011;59307;50.060;9.150;2023-03-15T15:36:51;4.10;;;2.00;;
71490;SDS011;59307;50.060;9.150;2023-03-15T15:41:41;2.20;;;1.30;;
71490;SDS011;59307;50.060;9.150;2023-03-15T15:44:10;4.13;;;1.80;;
71490;SDS011;59307;50.060;9.150;2023-03-15T15:46:38;4.60;;;2.20;;
71490;SDS011;59307;50.060;9.150;2023-03-15T15:49:03;2.97;;;1.50;;
71490;SDS011;59307;50.060;9.150;2023-03-15T15:51:36;5.20;;;1.80;;
71490;SDS011;59307;50.060;9.150;2023-03-15T15:54:02;4.13;;;1.70;;